createdAt,value
2022-11-25T00:00:22.652Z,28.77
2022-11-25T00:02:49.457Z,30.60
2022-11-25T00:05:16.401Z,27.35
2022-11-25T00:07:43.182Z,32.92
2022-11-25T00:10:10.133Z,29.05
2022-11-25T00:12:36.871Z,30.75
2022-11-25T00:15:04.177Z,28.92
2022-11-25T00:17:30.937Z,29.40
2022-11-25T00:19:57.902Z,29.58
2022-11-25T00:22:24.895Z,29.60
2022-11-25T00:24:51.564Z,32.42
2022-11-25T00:27:18.222Z,30.27
2022-11-25T00:29:45.229Z,32.38
2022-11-25T00:32:12.086Z,29.23
2022-11-25T00:34:38.768Z,29.50
2022-11-25T00:37:05.666Z,32.28
2022-11-25T00:39:32.361Z,29.88
2022-11-25T00:42:17.845Z,31.27
2022-11-25T00:44:44.537Z,28.20
2022-11-25T00:47:20.034Z,31.75
2022-11-25T00:49:51.793Z,28.92
2022-11-25T00:52:24.267Z,32.28
2022-11-25T00:54:51.975Z,26.98
2022-11-25T00:57:20.823Z,27.77
2022-11-25T00:59:48.021Z,26.83
2022-11-25T01:02:16.378Z,27.98
2022-11-25T01:04:43.186Z,32.22
2022-11-25T01:07:10.246Z,30.67
2022-11-25T01:09:37.720Z,31.58
2022-11-25T01:12:05.456Z,25.35
2022-11-25T01:14:33.172Z,30.48
2022-11-25T01:17:00.003Z,31.10
2022-11-25T01:19:26.970Z,26.58
2022-11-25T01:21:54.079Z,25.13
2022-11-25T01:24:20.830Z,30.65
2022-11-25T01:26:47.589Z,31.98
2022-11-25T01:29:16.952Z,31.90
2022-11-25T01:31:44.534Z,33.42
2022-11-25T01:34:18.041Z,33.75
2022-11-25T01:36:45.130Z,28.00
2022-11-25T01:39:31.925Z,31.40
2022-11-25T01:41:59.778Z,28.92
2022-11-25T01:44:32.739Z,27.10
2022-11-25T01:47:12.887Z,28.05
2022-11-25T01:49:54.358Z,29.00
2022-11-25T01:52:25.113Z,28.67
2022-11-25T01:55:02.818Z,28.67
2022-11-25T01:57:45.809Z,25.58
2022-11-25T02:00:13.445Z,25.48
2022-11-25T02:02:40.535Z,28.73
2022-11-25T02:05:10.562Z,34.92
2022-11-25T02:07:40.225Z,28.55
2022-11-25T02:10:26.571Z,24.77
2022-11-25T02:12:53.903Z,26.73
2022-11-25T02:15:21.704Z,23.42
2022-11-25T02:17:48.982Z,26.00
2022-11-25T02:20:19.077Z,22.70
2022-11-25T02:23:10.417Z,26.67
2022-11-25T02:25:40.161Z,22.20
2022-11-25T02:28:17.171Z,27.48
2022-11-25T02:30:45.034Z,24.80
2022-11-25T02:33:12.806Z,26.77
2022-11-25T02:35:46.992Z,22.30
2022-11-25T02:38:19.224Z,20.63
2022-11-25T02:41:24.817Z,21.98
2022-11-25T02:43:51.603Z,25.63
2022-11-25T02:46:22.824Z,22.92
2022-11-25T02:49:08.351Z,21.20
2022-11-25T02:51:36.654Z,21.77
2022-11-25T02:54:03.477Z,25.35
2022-11-25T02:56:33.870Z,24.65
2022-11-25T02:59:01.353Z,22.25
2022-11-25T03:01:31.127Z,21.45
2022-11-25T03:03:58.450Z,22.05
2022-11-25T03:06:25.334Z,21.75
2022-11-25T03:08:52.180Z,24.83
2022-11-25T03:11:18.849Z,23.55
2022-11-25T03:13:45.609Z,20.25
2022-11-25T03:16:12.762Z,22.90
2022-11-25T03:18:39.489Z,21.42
2022-11-25T03:21:07.388Z,22.88
2022-11-25T03:23:34.337Z,21.48
2022-11-25T03:26:05.651Z,24.58
2022-11-25T03:28:32.398Z,18.90
2022-11-25T03:30:59.165Z,23.02
2022-11-25T03:33:25.892Z,22.90
2022-11-25T03:35:52.554Z,24.92
2022-11-25T03:38:19.273Z,19.00
2022-11-25T03:40:47.256Z,23.70
2022-11-25T03:43:14.002Z,19.67
2022-11-25T03:45:40.790Z,20.15
2022-11-25T03:48:07.578Z,29.77
2022-11-25T03:50:34.337Z,22.48
2022-11-25T03:53:01.015Z,20.65
2022-11-25T03:55:27.756Z,19.55
2022-11-25T03:57:54.550Z,20.52
2022-11-25T04:00:21.629Z,29.13
2022-11-25T04:02:48.367Z,23.35
2022-11-25T04:05:15.190Z,19.05
2022-11-25T04:07:42.171Z,23.17
2022-11-25T04:10:09.647Z,24.75
2022-11-25T04:12:48.416Z,24.27
2022-11-25T04:15:16.810Z,19.77
2022-11-25T04:17:43.849Z,20.88
2022-11-25T04:20:12.207Z,20.88
2022-11-25T04:22:38.995Z,20.20
2022-11-25T04:25:06.449Z,21.30
2022-11-25T04:27:33.317Z,23.70
2022-11-25T04:30:00.242Z,19.27
2022-11-25T04:32:27.562Z,21.42
2022-11-25T04:34:54.573Z,21.08
2022-11-25T04:37:21.597Z,21.45
2022-11-25T04:39:48.406Z,21.05
2022-11-25T04:42:33.457Z,20.85
2022-11-25T04:45:33.401Z,19.60
2022-11-25T04:47:59.277Z,20.88
2022-11-25T04:50:26.067Z,23.05
2022-11-25T04:52:52.754Z,20.17
2022-11-25T04:55:20.287Z,21.45
2022-11-25T04:57:46.935Z,20.98
2022-11-25T05:00:14.256Z,19.10
2022-11-25T05:02:42.018Z,21.60
2022-11-25T05:05:09.267Z,20.65
2022-11-25T05:07:36.082Z,19.35
2022-11-25T05:10:02.988Z,20.38
2022-11-25T05:12:30.223Z,20.33
2022-11-25T05:14:57.655Z,21.08
2022-11-25T05:17:27.735Z,19.55
2022-11-25T05:19:54.401Z,19.77
2022-11-25T05:22:23.766Z,18.63
2022-11-25T05:24:50.837Z,19.77
2022-11-25T05:27:18.717Z,20.63
2022-11-25T05:29:45.517Z,19.92
2022-11-25T05:32:13.156Z,21.38
2022-11-25T05:34:40.483Z,19.77
2022-11-25T05:37:08.265Z,20.77
2022-11-25T05:39:35.377Z,18.63
2022-11-25T05:42:02.106Z,19.73
2022-11-25T05:44:28.825Z,17.15
2022-11-25T05:46:55.510Z,18.92
2022-11-25T05:49:22.322Z,20.40
2022-11-25T05:51:48.967Z,20.10
2022-11-25T05:54:15.798Z,25.35
2022-11-25T05:56:42.482Z,17.83
2022-11-25T05:59:09.092Z,22.35
2022-11-25T06:01:36.073Z,22.05
2022-11-25T06:04:04.505Z,19.13
2022-11-25T06:06:32.212Z,23.15
2022-11-25T06:08:59.471Z,24.73
2022-11-25T06:11:26.806Z,23.92
2022-11-25T06:13:55.605Z,24.75
2022-11-25T06:16:23.119Z,23.38
2022-11-25T06:18:50.402Z,24.52
2022-11-25T06:21:18.077Z,26.27
2022-11-25T06:23:46.248Z,25.55
2022-11-25T06:26:17.375Z,24.95
2022-11-25T06:28:44.578Z,29.77
2022-11-25T06:31:17.368Z,25.15
2022-11-25T06:33:48.155Z,27.13
2022-11-25T06:36:17.384Z,27.92
2022-11-25T06:38:49.320Z,29.60
2022-11-25T06:41:16.558Z,29.80
2022-11-25T06:43:43.343Z,32.08
2022-11-25T06:46:24.411Z,29.17
2022-11-25T06:48:52.756Z,29.33
2022-11-25T06:51:19.842Z,35.28
2022-11-25T06:53:46.537Z,28.40
2022-11-25T06:56:16.483Z,30.95
2022-11-25T06:58:44.523Z,30.65
2022-11-25T07:01:15.747Z,34.60
2022-11-25T07:03:43.629Z,36.72
2022-11-25T07:06:13.408Z,34.10
2022-11-25T07:08:40.495Z,33.40
2022-11-25T07:11:22.195Z,35.63
2022-11-25T07:13:52.216Z,34.95
2022-11-25T07:16:18.952Z,34.78
2022-11-25T07:18:46.010Z,37.60
2022-11-25T07:21:15.457Z,37.58
2022-11-25T07:23:43.368Z,36.05
2022-11-25T07:26:16.356Z,36.55
2022-11-25T07:28:44.090Z,39.28
2022-11-25T07:31:28.667Z,35.80
2022-11-25T07:34:11.691Z,41.80
2022-11-25T07:36:38.745Z,42.15
2022-11-25T07:39:17.779Z,37.72
2022-11-25T07:41:45.394Z,43.00
2022-11-25T07:44:14.297Z,38.00
2022-11-25T07:46:44.170Z,38.03
2022-11-25T07:49:21.220Z,37.60
2022-11-25T07:51:57.660Z,44.40
2022-11-25T07:54:24.539Z,43.30
2022-11-25T07:56:51.830Z,49.45
2022-11-25T07:59:21.322Z,43.42
2022-11-25T08:01:53.196Z,46.15
2022-11-25T08:04:21.114Z,45.78
2022-11-25T08:06:50.185Z,44.15
2022-11-25T08:09:20.699Z,51.92
2022-11-25T08:11:48.549Z,42.30
2022-11-25T08:14:16.098Z,48.15
2022-11-25T08:16:43.413Z,50.88
2022-11-25T08:19:13.924Z,48.70
2022-11-25T08:21:41.108Z,47.72
2022-11-25T08:24:07.944Z,45.53
2022-11-25T08:26:37.617Z,52.25
2022-11-25T08:29:06.682Z,55.08
2022-11-25T08:31:37.069Z,47.97
2022-11-25T08:34:05.120Z,53.70
2022-11-25T08:36:32.231Z,54.58
2022-11-25T08:39:01.337Z,52.30
2022-11-25T08:41:34.466Z,50.97
2022-11-25T08:44:03.070Z,48.47
2022-11-25T08:46:33.536Z,58.58
2022-11-25T08:49:00.764Z,55.20
2022-11-25T08:51:31.271Z,60.20
2022-11-25T08:53:58.686Z,59.42
2022-11-25T08:56:26.644Z,58.33
2022-11-25T08:58:54.691Z,57.25
2022-11-25T09:01:23.399Z,56.22
2022-11-25T09:03:52.915Z,58.10
2022-11-25T09:06:20.764Z,62.25
2022-11-25T09:08:48.307Z,62.88
2022-11-25T09:11:15.950Z,58.13
2022-11-25T09:13:42.931Z,58.08
2022-11-25T09:16:10.005Z,57.63
2022-11-25T09:18:37.521Z,56.80
2022-11-25T09:21:12.650Z,54.75
2022-11-25T09:23:40.119Z,52.67
2022-11-25T09:26:08.078Z,58.80
2022-11-25T09:28:35.547Z,60.70
2022-11-25T09:31:09.691Z,59.88
2022-11-25T09:33:36.853Z,55.08
2022-11-25T09:36:04.448Z,53.28
2022-11-25T09:38:31.194Z,60.05
2022-11-25T09:40:57.923Z,55.22
2022-11-25T09:44:19.121Z,52.90
2022-11-25T09:47:27.057Z,58.45
2022-11-25T09:50:14.726Z,60.00
2022-11-25T09:52:48.755Z,62.05
2022-11-25T09:55:19.443Z,61.28
2022-11-25T09:58:37.465Z,60.60
2022-11-25T10:01:07.064Z,59.15
2022-11-25T10:03:44.609Z,58.22
2022-11-25T10:06:16.509Z,57.20
2022-11-25T10:08:48.118Z,60.53
2022-11-25T10:11:28.174Z,56.38
2022-11-25T10:14:06.928Z,57.88
2022-11-25T10:16:51.766Z,57.50
2022-11-25T10:19:43.735Z,55.38
2022-11-25T10:22:40.274Z,52.17
2022-11-25T10:28:02.877Z,55.55
2022-11-25T10:30:51.090Z,53.42
2022-11-25T10:33:22.121Z,53.80
2022-11-25T10:35:54.115Z,50.53
2022-11-25T10:38:49.890Z,51.92
2022-11-25T10:41:20.968Z,49.85
2022-11-25T10:43:48.281Z,50.67
2022-11-25T10:47:12.998Z,51.33
2022-11-25T10:50:15.742Z,44.53
2022-11-25T10:53:02.431Z,46.97
2022-11-25T10:55:33.481Z,47.97
2022-11-25T10:58:29.190Z,44.40
2022-11-25T11:01:06.606Z,39.67
2022-11-25T11:03:33.729Z,46.53
2022-11-25T11:06:00.533Z,43.95
2022-11-25T11:08:37.252Z,44.50
2022-11-25T11:11:19.902Z,45.53
2022-11-25T11:13:48.578Z,40.65
2022-11-25T11:16:27.781Z,38.03
2022-11-25T11:18:56.527Z,35.00
2022-11-25T11:21:36.461Z,34.63
2022-11-25T11:24:22.999Z,35.92
2022-11-25T11:27:20.534Z,34.17
2022-11-25T11:29:47.366Z,37.45
2022-11-25T11:32:24.419Z,34.40
2022-11-25T11:35:06.596Z,33.22
2022-11-25T11:37:44.374Z,38.13
2022-11-25T11:40:32.381Z,37.17
2022-11-25T11:43:20.571Z,40.90
2022-11-25T11:45:53.400Z,39.85
2022-11-25T11:48:29.341Z,40.92
2022-11-25T11:51:17.842Z,35.42
2022-11-25T11:54:12.259Z,34.67
2022-11-25T11:56:55.563Z,38.60
2022-11-25T11:59:46.674Z,33.00
2022-11-25T12:02:16.837Z,30.88
2022-11-25T12:05:05.120Z,28.35
2022-11-25T12:07:49.619Z,30.45
2022-11-25T12:10:22.882Z,27.67
2022-11-25T12:12:53.161Z,30.20
2022-11-25T12:15:30.406Z,26.92
2022-11-25T12:18:04.381Z,28.73
2022-11-25T12:21:02.760Z,28.00
2022-11-25T12:23:48.756Z,27.20
2022-11-25T12:26:22.534Z,29.15
2022-11-25T12:29:00.159Z,24.70
2022-11-25T12:31:37.837Z,26.50
2022-11-25T12:34:08.563Z,24.42
2022-11-25T12:36:39.103Z,25.92
2022-11-25T12:39:27.247Z,27.98
2022-11-25T12:42:00.897Z,28.90
2022-11-25T12:44:37.345Z,31.15
2022-11-25T12:47:09.187Z,26.83
2022-11-25T12:49:42.952Z,25.75
2022-11-25T12:52:27.907Z,30.13
2022-11-25T12:55:13.823Z,29.70
2022-11-25T13:01:03.873Z,29.88
2022-11-25T13:03:53.814Z,30.88
2022-11-25T13:06:49.554Z,28.60
2022-11-25T13:09:30.683Z,28.15
2022-11-25T13:12:28.914Z,32.13
2022-11-25T13:15:28.517Z,29.92
2022-11-25T13:18:00.767Z,25.38
2022-11-25T13:20:27.420Z,30.20
2022-11-25T13:23:08.130Z,25.30
2022-11-25T13:25:36.826Z,27.58
2022-11-25T13:28:05.300Z,26.42
2022-11-25T13:30:32.043Z,27.67
2022-11-25T13:33:24.673Z,32.53
2022-11-25T13:35:55.505Z,26.38
2022-11-25T13:38:35.733Z,26.17
2022-11-25T13:41:21.411Z,32.10
2022-11-25T13:46:54.491Z,29.45
2022-11-25T13:49:30.333Z,27.90
2022-11-25T13:52:17.290Z,31.88
2022-11-25T13:54:56.368Z,31.38
2022-11-25T13:57:34.806Z,35.90
2022-11-25T14:00:33.689Z,33.67
2022-11-25T14:03:18.827Z,33.33
2022-11-25T14:06:43.050Z,29.90
2022-11-25T14:09:22.425Z,33.00
2022-11-25T14:12:19.999Z,32.08
2022-11-25T14:15:05.093Z,34.13
2022-11-25T14:17:55.070Z,40.50
2022-11-25T14:20:43.372Z,37.13
2022-11-25T14:23:22.464Z,36.35
2022-11-25T14:25:53.553Z,40.35
2022-11-25T14:28:44.218Z,40.78
2022-11-25T14:31:15.812Z,39.75
2022-11-25T14:33:52.184Z,39.72
2022-11-25T14:36:27.320Z,42.45
2022-11-25T14:39:06.048Z,42.00
2022-11-25T14:41:38.081Z,47.67
2022-11-25T14:44:13.568Z,44.88
2022-11-25T14:46:55.019Z,44.15
2022-11-25T14:49:46.627Z,39.63
2022-11-25T14:52:11.073Z,43.63
2022-11-25T14:54:43.214Z,47.13
2022-11-25T14:57:10.508Z,47.78
2022-11-25T14:59:43.650Z,45.58
2022-11-25T15:02:34.950Z,43.28
2022-11-25T15:05:22.835Z,44.55
2022-11-25T15:08:03.823Z,42.97
2022-11-25T15:10:36.297Z,42.33
2022-11-25T15:13:12.520Z,47.35
2022-11-25T15:15:39.880Z,48.63
2022-11-25T15:18:08.185Z,45.85
2022-11-25T15:20:35.734Z,44.38
2022-11-25T15:23:03.371Z,51.85
2022-11-25T15:25:30.102Z,48.67
2022-11-25T15:27:56.993Z,51.47
2022-11-25T15:30:26.659Z,43.20
2022-11-25T15:32:54.330Z,49.63
2022-11-25T15:35:24.060Z,47.75
2022-11-25T15:37:50.834Z,47.30
2022-11-25T15:40:43.076Z,49.97
2022-11-25T15:43:29.780Z,44.70
2022-11-25T15:46:02.786Z,51.85
2022-11-25T15:48:35.399Z,46.53
2022-11-25T15:51:54.374Z,55.28
2022-11-25T15:54:31.330Z,50.20
2022-11-25T15:57:05.848Z,46.10
2022-11-25T15:59:55.320Z,46.63
2022-11-25T16:02:37.357Z,49.38
2022-11-25T16:05:15.922Z,44.80
2022-11-25T16:07:52.271Z,49.83
2022-11-25T16:10:20.479Z,50.38
2022-11-25T16:13:19.706Z,51.10
2022-11-25T16:16:00.675Z,51.88
2022-11-25T16:18:54.898Z,47.97
2022-11-25T16:21:30.791Z,50.65
2022-11-25T16:24:11.837Z,52.22
2022-11-25T16:26:49.604Z,48.88
2022-11-25T16:29:18.588Z,50.60
2022-11-25T16:31:45.416Z,49.42
2022-11-25T16:34:14.289Z,52.03
2022-11-25T16:36:41.588Z,51.90
2022-11-25T16:39:08.464Z,52.20
2022-11-25T16:41:35.990Z,54.95
2022-11-25T16:44:08.805Z,54.28
2022-11-25T16:46:35.637Z,52.88
2022-11-25T16:49:12.167Z,53.03
2022-11-25T16:51:38.847Z,53.05
2022-11-25T16:54:05.571Z,54.47
2022-11-25T16:56:35.041Z,53.03
2022-11-25T16:59:02.910Z,57.28
2022-11-25T17:01:30.891Z,51.78
2022-11-25T17:03:57.788Z,54.75
2022-11-25T17:06:26.933Z,60.67
2022-11-25T17:08:53.586Z,52.90
2022-11-25T17:11:39.658Z,60.10
2022-11-25T17:14:20.704Z,61.10
2022-11-25T17:16:47.653Z,53.05
2022-11-25T17:19:16.170Z,57.53
2022-11-25T17:21:44.187Z,55.55
2022-11-25T17:24:23.160Z,56.78
2022-11-25T17:27:04.913Z,55.83
2022-11-25T17:29:40.354Z,58.33
2022-11-25T17:34:38.196Z,58.78
2022-11-25T17:37:18.497Z,58.60
2022-11-25T17:39:45.305Z,54.42
2022-11-25T17:42:15.892Z,57.17
2022-11-25T17:44:45.281Z,63.08
2022-11-25T17:47:16.403Z,60.17
2022-11-25T17:49:45.786Z,64.93
2022-11-25T17:52:12.477Z,58.20
2022-11-25T17:54:39.933Z,57.13
2022-11-25T17:57:11.433Z,70.70
2022-11-25T17:59:38.284Z,59.00
2022-11-25T18:02:21.985Z,55.25
2022-11-25T18:04:49.506Z,62.78
2022-11-25T18:07:16.665Z,64.65
2022-11-25T18:09:44.561Z,61.83
2022-11-25T18:12:27.729Z,64.50
2022-11-25T18:14:55.822Z,67.60
2022-11-25T18:17:22.869Z,69.03
2022-11-25T18:19:54.651Z,65.88
2022-11-25T18:22:24.227Z,59.38
2022-11-25T18:24:51.554Z,63.42
2022-11-25T18:27:23.566Z,65.85
2022-11-25T18:29:51.329Z,61.15
2022-11-25T18:32:18.090Z,71.75
2022-11-25T18:34:44.849Z,65.65
2022-11-25T18:37:12.820Z,61.40
2022-11-25T18:39:39.958Z,68.65
2022-11-25T18:42:07.888Z,62.95
2022-11-25T18:44:43.578Z,67.18
2022-11-25T18:47:13.685Z,69.40
2022-11-25T18:49:40.339Z,66.82
2022-11-25T18:52:07.043Z,59.13
2022-11-25T18:54:33.749Z,75.15
2022-11-25T18:57:00.644Z,60.10
2022-11-25T18:59:33.451Z,65.82
2022-11-25T19:02:00.701Z,61.25
2022-11-25T19:04:28.170Z,63.22
2022-11-25T19:06:55.130Z,63.53
2022-11-25T19:09:21.778Z,60.90
2022-11-25T19:11:53.042Z,64.30
2022-11-25T19:14:29.908Z,64.28
2022-11-25T19:17:03.202Z,62.80
2022-11-25T19:19:30.164Z,69.28
2022-11-25T19:21:58.313Z,67.63
2022-11-25T19:24:25.033Z,62.72
2022-11-25T19:26:55.687Z,64.40
2022-11-25T19:29:37.519Z,70.28
2022-11-25T19:32:19.175Z,64.70
2022-11-25T19:34:50.306Z,73.55
2022-11-25T19:37:20.620Z,67.95
2022-11-25T19:39:49.701Z,63.33
2022-11-25T19:42:16.621Z,64.65
2022-11-25T19:44:44.804Z,63.42
2022-11-25T19:47:26.039Z,63.63
2022-11-25T19:49:59.143Z,60.67
2022-11-25T19:52:34.891Z,62.22
2022-11-25T19:55:21.568Z,65.70
2022-11-25T19:57:49.295Z,71.35
2022-11-25T20:00:18.226Z,59.97
2022-11-25T20:02:46.579Z,66.25
2022-11-25T20:05:21.168Z,62.55
2022-11-25T20:07:48.720Z,61.70
2022-11-25T20:10:21.872Z,61.40
2022-11-25T20:12:49.358Z,64.10
2022-11-25T20:15:16.172Z,59.10
2022-11-25T20:17:46.551Z,63.00
2022-11-25T20:20:16.571Z,66.55
2022-11-25T20:22:53.687Z,65.15
2022-11-25T20:25:20.881Z,63.58
2022-11-25T20:27:47.717Z,67.38
2022-11-25T20:30:22.736Z,61.20
2022-11-25T20:32:49.922Z,67.03
2022-11-25T20:35:17.118Z,68.72
2022-11-25T20:38:13.802Z,65.85
2022-11-25T20:40:43.231Z,66.57
2022-11-25T20:43:29.363Z,59.75
2022-11-25T20:45:56.927Z,60.67
2022-11-25T20:48:24.944Z,60.55
2022-11-25T20:50:52.094Z,65.95
2022-11-25T20:53:21.003Z,69.75
2022-11-25T20:55:48.866Z,66.53
2022-11-25T20:58:25.965Z,67.20
2022-11-25T21:00:57.454Z,67.60
2022-11-25T21:03:25.740Z,63.65
2022-11-25T21:05:53.703Z,64.72
2022-11-25T21:08:23.564Z,63.25
2022-11-25T21:10:52.919Z,65.97
2022-11-25T21:13:27.410Z,70.72
2022-11-25T21:15:54.499Z,65.32
2022-11-25T21:18:22.064Z,67.00
2022-11-25T21:20:51.283Z,58.72
2022-11-25T21:23:33.683Z,65.57
2022-11-25T21:26:11.716Z,61.15
2022-11-25T21:28:42.348Z,66.80
2022-11-25T21:31:18.035Z,62.67
2022-11-25T21:33:46.302Z,64.75
2022-11-25T21:36:20.909Z,68.72
2022-11-25T21:38:49.883Z,68.35
2022-11-25T21:41:17.353Z,66.18
2022-11-25T21:43:46.847Z,66.40
2022-11-25T21:46:22.404Z,65.18
2022-11-25T21:51:23.934Z,67.70
2022-11-25T21:53:51.661Z,70.25
2022-11-25T21:56:19.615Z,72.20
2022-11-25T21:58:46.496Z,71.72
2022-11-25T22:01:14.584Z,66.22
2022-11-25T22:03:41.414Z,62.97
2022-11-25T22:06:26.275Z,66.70
2022-11-25T22:08:53.447Z,66.88
2022-11-25T22:11:24.021Z,60.70
2022-11-25T22:13:51.241Z,66.30
2022-11-25T22:16:25.881Z,68.65
2022-11-25T22:18:52.754Z,66.38
2022-11-25T22:21:19.563Z,62.28
2022-11-25T22:23:46.386Z,66.30
2022-11-25T22:26:34.127Z,63.92
2022-11-25T22:29:01.876Z,68.30
2022-11-25T22:31:28.881Z,71.63
2022-11-25T22:33:56.255Z,66.18
2022-11-25T22:36:34.484Z,68.72
2022-11-25T22:39:18.373Z,70.20
2022-11-25T22:41:51.098Z,69.63
2022-11-25T22:44:40.667Z,68.88
2022-11-25T22:47:10.715Z,66.00
2022-11-25T22:49:48.182Z,66.50
2022-11-25T22:52:26.090Z,64.90
2022-11-25T22:54:53.730Z,64.75
2022-11-25T22:57:20.616Z,66.15
2022-11-25T22:59:47.295Z,68.80
2022-11-25T23:02:31.632Z,67.10
2022-11-25T23:04:58.594Z,68.53
2022-11-25T23:07:25.513Z,66.50
2022-11-25T23:09:52.625Z,61.42
2022-11-25T23:12:19.633Z,65.55
2022-11-25T23:14:46.464Z,58.70
2022-11-25T23:17:23.197Z,70.38
2022-11-25T23:19:51.205Z,62.42
2022-11-25T23:22:18.892Z,64.32
2022-11-25T23:24:47.479Z,64.85
2022-11-25T23:27:15.314Z,66.43
2022-11-25T23:29:42.185Z,67.38
2022-11-25T23:32:18.569Z,67.47
2022-11-25T23:34:45.986Z,60.25
2022-11-25T23:37:13.990Z,56.88
2022-11-25T23:39:41.285Z,57.70
2022-11-25T23:42:17.127Z,60.35
2022-11-25T23:44:44.241Z,66.22
2022-11-25T23:47:20.313Z,62.92
2022-11-25T23:49:50.779Z,60.90
2022-11-25T23:52:22.255Z,70.25
2022-11-25T23:54:50.803Z,79.13
2022-11-25T23:57:19.159Z,70.05
2022-11-25T23:59:46.615Z,71.82
